createdAt,value
2022-10-03T00:00:31.345Z,101296.63
2022-10-03T00:04:44.510Z,101304.00
2022-10-03T00:09:10.607Z,101299.50
2022-10-03T00:13:34.120Z,101303.69
2022-10-03T00:18:23.500Z,101309.00
2022-10-03T00:22:33.904Z,101313.50
2022-10-03T00:26:53.541Z,101318.03
2022-10-03T00:31:14.163Z,101331.19
2022-10-03T00:35:23.083Z,101322.88
2022-10-03T00:39:49.266Z,101327.06
2022-10-03T00:44:34.202Z,101342.97
2022-10-03T00:49:03.591Z,101329.31
2022-10-03T00:53:17.124Z,101336.97
2022-10-03T00:57:38.229Z,101332.94
2022-10-03T01:01:48.291Z,101345.06
2022-10-03T01:05:55.815Z,101343.78
2022-10-03T01:10:13.147Z,101356.63
2022-10-03T01:14:52.778Z,101346.69
2022-10-03T01:19:32.989Z,101342.47
2022-10-03T01:23:37.160Z,101351.66
2022-10-03T01:28:10.703Z,101353.41
2022-10-03T01:32:38.948Z,101356.19
2022-10-03T01:36:56.195Z,101352.19
2022-10-03T01:41:03.369Z,101362.50
2022-10-03T01:45:13.023Z,101363.19
2022-10-03T01:49:17.945Z,101372.22
2022-10-03T01:53:46.392Z,101370.91
2022-10-03T01:58:08.545Z,101362.38
2022-10-03T02:02:20.121Z,101385.38
2022-10-03T02:06:33.430Z,101370.25
2022-10-03T02:10:45.045Z,101366.97
2022-10-03T02:15:12.061Z,101380.31
2022-10-03T02:19:26.458Z,101389.88
2022-10-03T02:23:32.034Z,101388.25
2022-10-03T02:27:41.416Z,101385.22
2022-10-03T02:32:20.453Z,101392.41
2022-10-03T02:36:59.356Z,101397.75
2022-10-03T02:41:22.082Z,101397.41
2022-10-03T02:45:54.541Z,101392.66
2022-10-03T02:50:32.501Z,101387.44
2022-10-03T02:54:51.915Z,101396.00
2022-10-03T02:59:21.648Z,101404.56
2022-10-03T03:03:58.793Z,101396.31
2022-10-03T03:08:22.071Z,101403.72
2022-10-03T03:12:48.980Z,101406.75
2022-10-03T03:17:22.535Z,101410.00
2022-10-03T03:21:34.670Z,101410.59
2022-10-03T03:25:39.025Z,101411.59
2022-10-03T03:29:50.020Z,101414.63
2022-10-03T03:34:31.567Z,101409.13
2022-10-03T03:38:46.329Z,101415.25
2022-10-03T03:43:08.712Z,101412.81
2022-10-03T03:47:10.644Z,101417.78
2022-10-03T03:51:34.960Z,101438.81
2022-10-03T03:55:53.129Z,101432.50
2022-10-03T04:00:47.032Z,101427.94
2022-10-03T04:05:00.993Z,101428.50
2022-10-03T04:09:22.196Z,101439.31
2022-10-03T04:13:29.066Z,101438.44
2022-10-03T04:18:24.067Z,101450.38
2022-10-03T04:22:44.929Z,101443.13
2022-10-03T04:27:07.703Z,101441.81
2022-10-03T04:31:20.941Z,101453.06
2022-10-03T04:35:37.557Z,101454.44
2022-10-03T04:39:47.515Z,101451.78
2022-10-03T04:44:01.074Z,101457.91
2022-10-03T04:48:30.028Z,101457.94
2022-10-03T04:52:41.974Z,101461.28
2022-10-03T04:57:08.696Z,101445.41
2022-10-03T05:01:33.276Z,101453.97
2022-10-03T05:05:47.701Z,101460.13
2022-10-03T05:09:55.277Z,101461.84
2022-10-03T05:14:12.202Z,101469.25
2022-10-03T05:18:28.746Z,101475.03
2022-10-03T05:22:41.510Z,101477.91
2022-10-03T05:27:01.593Z,101486.59
2022-10-03T05:31:21.826Z,101482.88
2022-10-03T05:35:53.293Z,101490.75
2022-10-03T05:40:01.505Z,101485.91
2022-10-03T05:44:09.758Z,101491.00
2022-10-03T05:48:31.522Z,101496.78
2022-10-03T05:52:54.184Z,101502.00
2022-10-03T05:57:17.230Z,101503.25
2022-10-03T06:02:00.247Z,101501.53
2022-10-03T06:06:20.767Z,101507.22
2022-10-03T06:10:28.079Z,101527.78
2022-10-03T06:14:54.625Z,101531.38
2022-10-03T06:19:15.661Z,101529.44
2022-10-03T06:23:43.849Z,101542.63
2022-10-03T06:28:19.974Z,101550.72
2022-10-03T06:32:59.038Z,101550.69
2022-10-03T06:37:22.834Z,101553.25
2022-10-03T06:42:12.148Z,101563.00
2022-10-03T06:46:53.091Z,101563.44
2022-10-03T06:51:45.684Z,101562.50
2022-10-03T06:56:09.830Z,101553.03
2022-10-03T07:00:16.270Z,101567.47
2022-10-03T07:04:24.104Z,101560.69
2022-10-03T07:08:46.157Z,101564.69
2022-10-03T07:12:56.758Z,101578.91
2022-10-03T07:17:35.019Z,101578.31
2022-10-03T07:21:40.456Z,101584.09
2022-10-03T07:26:03.447Z,101591.63
2022-10-03T07:30:13.458Z,101595.84
2022-10-03T07:34:34.395Z,101602.09
2022-10-03T07:39:10.299Z,101618.06
2022-10-03T07:43:36.035Z,101600.19
2022-10-03T07:47:54.487Z,101599.44
2022-10-03T07:52:20.922Z,101613.75
2022-10-03T07:57:00.609Z,101621.47
2022-10-03T08:01:46.392Z,101629.13
2022-10-03T08:06:24.555Z,101627.91
2022-10-03T08:10:56.955Z,101639.50
2022-10-03T08:15:05.042Z,101625.66
2022-10-03T08:19:27.429Z,101646.53
2022-10-03T08:23:57.105Z,101653.91
2022-10-03T08:28:08.839Z,101646.84
2022-10-03T08:32:48.865Z,101645.09
2022-10-03T08:37:09.167Z,101652.91
2022-10-03T08:41:10.715Z,101663.94
2022-10-03T08:45:20.881Z,101668.53
2022-10-03T08:50:04.402Z,101675.19
2022-10-03T08:54:09.822Z,101667.34
2022-10-03T08:58:43.596Z,101668.41
2022-10-03T09:03:13.992Z,101675.91
2022-10-03T09:07:55.523Z,101665.13
2022-10-03T09:12:47.244Z,101668.78
2022-10-03T09:17:26.408Z,101673.53
2022-10-03T09:21:55.112Z,101673.13
2022-10-03T09:26:18.022Z,101669.34
2022-10-03T09:30:43.820Z,101675.47
2022-10-03T09:35:22.073Z,101677.34
2022-10-03T09:39:41.844Z,101676.03
2022-10-03T09:44:14.769Z,101675.72
2022-10-03T09:48:32.706Z,101674.63
2022-10-03T09:53:11.585Z,101677.72
2022-10-03T09:57:24.998Z,101682.16
2022-10-03T10:02:04.926Z,101683.50
2022-10-03T10:06:10.855Z,101685.66
2022-10-03T10:10:33.163Z,101683.28
2022-10-03T10:14:47.437Z,101693.38
2022-10-03T10:19:12.409Z,101689.19
2022-10-03T10:23:27.783Z,101689.19
2022-10-03T10:27:48.123Z,101685.34
2022-10-03T10:32:27.154Z,101686.59
2022-10-03T10:36:55.985Z,101676.84
2022-10-03T10:41:06.419Z,101678.84
2022-10-03T10:45:39.255Z,101667.59
2022-10-03T10:50:04.679Z,101664.50
2022-10-03T10:54:12.126Z,101659.97
2022-10-03T10:58:25.754Z,101667.16
2022-10-03T11:02:59.374Z,101662.84
2022-10-03T11:07:18.978Z,101676.69
2022-10-03T11:11:26.299Z,101676.84
2022-10-03T11:16:19.515Z,101675.09
2022-10-03T11:20:58.853Z,101674.59
2022-10-03T11:25:31.285Z,101682.66
2022-10-03T11:29:55.042Z,101673.59
2022-10-03T11:34:27.204Z,101680.72
2022-10-03T11:38:37.769Z,101690.16
2022-10-03T11:43:17.345Z,101694.50
2022-10-03T11:47:42.339Z,101693.91
2022-10-03T11:52:02.658Z,101687.78
2022-10-03T11:56:04.116Z,101696.34
2022-10-03T12:00:20.740Z,101689.81
2022-10-03T12:04:51.385Z,101682.22
2022-10-03T12:09:17.338Z,101681.81
2022-10-03T12:13:37.351Z,101677.81
2022-10-03T12:17:43.302Z,101677.84
2022-10-03T12:21:58.547Z,101670.81
2022-10-03T12:26:03.227Z,101661.75
2022-10-03T12:30:14.459Z,101670.13
2022-10-03T12:34:43.416Z,101671.19
2022-10-03T12:39:11.069Z,101662.75
2022-10-03T12:43:38.662Z,101665.53
2022-10-03T12:47:55.707Z,101651.84
2022-10-03T12:52:02.580Z,101643.78
2022-10-03T12:56:22.028Z,101657.72
2022-10-03T13:00:50.499Z,101658.59
2022-10-03T13:04:52.626Z,101654.59
2022-10-03T13:09:05.033Z,101652.03
2022-10-03T13:13:31.147Z,101645.56
2022-10-03T13:17:57.817Z,101651.19
2022-10-03T13:22:08.454Z,101637.56
2022-10-03T13:26:18.447Z,101651.94
2022-10-03T13:30:31.413Z,101659.97
2022-10-03T13:34:54.969Z,101657.06
2022-10-03T13:39:19.271Z,101656.47
2022-10-03T13:43:28.182Z,101654.88
2022-10-03T13:47:42.581Z,101652.88
2022-10-03T13:52:02.336Z,101656.38
2022-10-03T13:56:10.249Z,101666.72
2022-10-03T14:00:15.975Z,101662.91
2022-10-03T14:04:35.656Z,101656.81
2022-10-03T14:09:08.516Z,101686.53
2022-10-03T14:13:39.765Z,101670.59
2022-10-03T14:17:59.757Z,101671.91
2022-10-03T14:22:06.077Z,101670.81
2022-10-03T14:26:19.090Z,101663.78
2022-10-03T14:30:21.520Z,101671.63
2022-10-03T14:34:43.797Z,101661.44
2022-10-03T14:38:57.784Z,101658.81
2022-10-03T14:43:24.786Z,101656.91
2022-10-03T14:47:33.788Z,101648.59
2022-10-03T14:51:43.106Z,101654.28
2022-10-03T14:56:06.530Z,101649.22
2022-10-03T15:00:09.491Z,101651.22
2022-10-03T15:04:23.594Z,101651.44
2022-10-03T15:08:31.518Z,101642.50
2022-10-03T15:12:36.326Z,101646.91
2022-10-03T15:16:53.820Z,101644.06
2022-10-03T15:20:57.537Z,101640.28
2022-10-03T15:25:07.257Z,101627.97
2022-10-03T15:29:16.919Z,101648.22
2022-10-03T15:33:32.309Z,101634.16
2022-10-03T15:37:46.924Z,101650.03
2022-10-03T15:42:13.337Z,101647.28
2022-10-03T15:46:39.655Z,101649.47
2022-10-03T15:50:43.546Z,101637.97
2022-10-03T15:55:14.065Z,101643.53
2022-10-03T15:59:22.421Z,101651.84
2022-10-03T16:03:32.333Z,101651.94
2022-10-03T16:07:50.667Z,101648.19
2022-10-03T16:12:14.313Z,101650.03
2022-10-03T16:16:42.498Z,101644.34
2022-10-03T16:20:57.385Z,101649.34
2022-10-03T16:25:11.041Z,101645.31
2022-10-03T16:29:22.049Z,101657.00
2022-10-03T16:33:31.124Z,101653.63
2022-10-03T16:37:37.518Z,101644.47
2022-10-03T16:41:43.923Z,101651.84
2022-10-03T16:45:47.401Z,101659.88
2022-10-03T16:50:14.973Z,101661.13
2022-10-03T16:54:19.841Z,101652.50
2022-10-03T16:58:29.395Z,101666.88
2022-10-03T17:02:31.263Z,101650.50
2022-10-03T17:06:37.971Z,101644.56
2022-10-03T17:10:40.774Z,101657.91
2022-10-03T17:14:44.643Z,101653.25
2022-10-03T17:19:11.499Z,101640.66
2022-10-03T17:23:31.070Z,101647.66
2022-10-03T17:27:41.554Z,101654.38
2022-10-03T17:31:55.477Z,101654.22
2022-10-03T17:35:56.870Z,101651.25
2022-10-03T17:40:19.956Z,101650.06
2022-10-03T17:44:37.277Z,101650.91
2022-10-03T17:48:52.795Z,101631.75
2022-10-03T17:52:54.948Z,101641.47
2022-10-03T17:57:05.900Z,101645.47
2022-10-03T18:01:19.944Z,101651.00
2022-10-03T18:05:43.621Z,101653.22
2022-10-03T18:09:50.709Z,101664.94
2022-10-03T18:14:19.011Z,101666.72
2022-10-03T18:18:38.881Z,101665.56
2022-10-03T18:22:48.261Z,101679.84
2022-10-03T18:27:27.062Z,101662.78
2022-10-03T18:31:34.272Z,101675.34
2022-10-03T18:35:36.981Z,101660.97
2022-10-03T18:39:38.921Z,101650.47
2022-10-03T18:43:46.883Z,101650.13
2022-10-03T18:47:56.741Z,101657.25
2022-10-03T18:52:11.437Z,101655.94
2022-10-03T18:56:21.486Z,101658.41
2022-10-03T19:00:29.946Z,101664.94
2022-10-03T19:04:42.886Z,101659.91
2022-10-03T19:08:53.770Z,101664.75
2022-10-03T19:13:03.948Z,101656.75
2022-10-03T19:17:24.656Z,101661.72
2022-10-03T19:21:27.489Z,101656.16
2022-10-03T19:25:30.464Z,101655.84
2022-10-03T19:29:35.614Z,101660.56
2022-10-03T19:33:51.700Z,101662.22
2022-10-03T19:37:56.087Z,101659.63
2022-10-03T19:42:11.807Z,101649.91
2022-10-03T19:46:22.371Z,101662.50
2022-10-03T19:50:44.146Z,101656.47
2022-10-03T19:55:06.955Z,101652.34
2022-10-03T19:59:17.941Z,101660.78
2022-10-03T20:03:29.154Z,101656.59
2022-10-03T20:07:41.279Z,101659.69
2022-10-03T20:11:46.465Z,101659.84
2022-10-03T20:15:50.331Z,101664.50
2022-10-03T20:19:58.089Z,101662.97
2022-10-03T20:24:01.163Z,101661.22
2022-10-03T20:28:06.305Z,101650.28
2022-10-03T20:32:15.594Z,101651.38
2022-10-03T20:36:22.470Z,101646.06
2022-10-03T20:40:36.597Z,101650.31
2022-10-03T20:45:01.474Z,101657.06
2022-10-03T20:49:36.246Z,101660.06
2022-10-03T20:53:42.491Z,101660.50
2022-10-03T20:57:47.986Z,101656.66
2022-10-03T21:01:59.941Z,101665.16
2022-10-03T21:06:04.370Z,101666.53
2022-10-03T21:10:36.725Z,101658.84
2022-10-03T21:14:41.153Z,101667.25
2022-10-03T21:18:47.362Z,101667.59
2022-10-03T21:22:52.138Z,101660.84
2022-10-03T21:27:00.272Z,101659.84
2022-10-03T21:31:18.447Z,101664.25
2022-10-03T21:35:36.105Z,101661.72
2022-10-03T21:39:46.609Z,101661.72
2022-10-03T21:43:56.926Z,101654.41
2022-10-03T21:48:11.759Z,101650.09
2022-10-03T21:52:25.263Z,101649.81
2022-10-03T21:56:26.589Z,101648.25
2022-10-03T22:00:55.690Z,101641.78
2022-10-03T22:05:13.179Z,101651.97
2022-10-03T22:09:15.690Z,101650.38
2022-10-03T22:13:21.145Z,101648.72
2022-10-03T22:17:44.933Z,101649.13
2022-10-03T22:22:12.714Z,101645.94
2022-10-03T22:26:26.899Z,101637.06
2022-10-03T22:30:31.879Z,101634.94
2022-10-03T22:34:55.704Z,101632.94
2022-10-03T22:38:57.119Z,101634.13
2022-10-03T22:43:03.070Z,101632.28
2022-10-03T22:47:13.576Z,101634.78
2022-10-03T22:51:17.341Z,101625.06
2022-10-03T22:55:22.105Z,101619.97
2022-10-03T22:59:33.809Z,101628.50
2022-10-03T23:03:35.898Z,101625.84
2022-10-03T23:07:54.901Z,101624.91
2022-10-03T23:11:57.519Z,101620.81
2022-10-03T23:16:23.833Z,101627.19
2022-10-03T23:20:43.997Z,101619.47
2022-10-03T23:25:12.128Z,101624.88
2022-10-03T23:29:17.997Z,101618.41
2022-10-03T23:33:40.024Z,101637.31
2022-10-03T23:37:43.455Z,101629.50
2022-10-03T23:41:55.225Z,101636.06
2022-10-03T23:46:04.283Z,101638.69
2022-10-03T23:50:07.496Z,101633.84
2022-10-03T23:54:12.900Z,101639.66
2022-10-03T23:58:24.723Z,101648.38
